Time,TemperatureF,DewpointF,PressureIn,WindDirection,WindDirectionDegrees,WindSpeedMPH,WindSpeedGustMPH,Humidity,HourlyPrecipIn,Conditions,Clouds,dailyrainin,SoftwareType,DateUTC
2013-05-14 00:02:00,63.0,53.0,30.05,SSE,157,2.0,4.0,69,-99.99,,,-99.99,,2013-05-14 05:02:00,
2013-05-14 00:12:00,63.0,53.0,30.05,SSE,157,1.0,4.0,70,-99.99,,,-99.99,,2013-05-14 05:12:00,
2013-05-14 00:21:00,63.0,53.0,30.04,South,180,3.0,6.0,70,-99.99,,,-99.99,,2013-05-14 05:21:00,
2013-05-14 00:32:00,63.0,53.0,30.04,ESE,112,2.0,4.0,71,-99.99,,,-99.99,,2013-05-14 05:32:00,
2013-05-14 00:42:00,63.0,53.0,30.03,SE,135,2.0,5.0,72,-99.99,,,-99.99,,2013-05-14 05:42:00,
2013-05-14 00:52:00,62.0,53.0,30.03,SSE,157,2.0,5.0,73,-99.99,,,-99.99,,2013-05-14 05:52:00,
2013-05-14 01:01:00,62.0,53.0,30.03,SSE,157,2.0,3.0,73,-99.99,,,-99.99,,2013-05-14 06:01:00,
2013-05-14 01:12:00,62.0,53.0,30.03,South,180,2.0,4.0,73,-99.99,,,-99.99,,2013-05-14 06:12:00,
2013-05-14 01:22:00,62.0,53.0,30.03,SE,135,2.0,4.0,73,-99.99,,,-99.99,,2013-05-14 06:22:00,
2013-05-14 01:32:00,61.0,53.0,30.03,SE,135,2.0,4.0,74,-99.99,,,-99.99,,2013-05-14 06:32:00,
2013-05-14 01:42:00,61.0,53.0,30.02,SE,135,2.0,3.0,74,-99.99,,,-99.99,,2013-05-14 06:42:00,
2013-05-14 01:51:00,61.0,53.0,30.02,SSE,157,2.0,3.0,74,-99.99,,,-99.99,,2013-05-14 06:51:00,
2013-05-14 02:02:00,61.0,53.0,30.02,SSE,157,2.0,4.0,74,-99.99,,,-99.99,,2013-05-14 07:02:00,
2013-05-14 02:11:00,62.0,53.0,30.01,South,180,3.0,4.0,73,-99.99,,,-99.99,,2013-05-14 07:11:00,
2013-05-14 02:21:00,61.0,53.0,30.01,SE,135,2.0,6.0,74,-99.99,,,-99.99,,2013-05-14 07:21:00,
2013-05-14 02:31:00,62.0,53.0,30.00,SE,135,2.0,6.0,73,-99.99,,,-99.99,,2013-05-14 07:31:00,
2013-05-14 02:41:00,62.0,53.0,30.00,SSW,202,3.0,6.0,73,-99.99,,,-99.99,,2013-05-14 07:41:00,
2013-05-14 02:52:00,62.0,53.0,29.99,SSE,157,2.0,6.0,73,-99.99,,,-99.99,,2013-05-14 07:52:00,
2013-05-14 03:02:00,62.0,53.0,29.99,SSE,157,3.0,7.0,72,-99.99,,,-99.99,,2013-05-14 08:02:00,
2013-05-14 03:11:00,62.0,54.0,29.99,SE,135,3.0,6.0,74,-99.99,,,-99.99,,2013-05-14 08:11:00,
2013-05-14 03:21:00,61.0,54.0,29.99,SSE,157,2.0,4.0,75,-99.99,,,-99.99,,2013-05-14 08:21:00,
2013-05-14 03:31:00,62.0,54.0,29.99,SSW,202,2.0,6.0,75,-99.99,,,-99.99,,2013-05-14 08:31:00,
2013-05-14 03:41:00,64.0,54.0,29.98,SSW,202,6.0,10.0,71,-99.99,,,-99.99,,2013-05-14 08:41:00,
2013-05-14 03:51:00,65.0,55.0,29.98,SSW,202,6.0,9.0,70,-99.99,,,-99.99,,2013-05-14 08:51:00,
2013-05-14 04:02:00,65.0,54.0,29.98,SW,225,6.0,9.0,69,-99.99,,,-99.99,,2013-05-14 09:02:00,
2013-05-14 04:11:00,65.0,55.0,29.98,SW,225,6.0,8.0,69,-99.99,,,-99.99,,2013-05-14 09:11:00,
2013-05-14 04:21:00,65.0,55.0,29.98,SW,225,7.0,12.0,68,-99.99,,,-99.99,,2013-05-14 09:21:00,
2013-05-14 04:32:00,65.0,54.0,29.97,SW,225,8.0,14.0,68,-99.99,,,-99.99,,2013-05-14 09:32:00,
2013-05-14 04:44:00,66.0,55.0,29.97,SW,225,8.0,13.0,67,-99.99,,,-99.99,,2013-05-14 09:44:00,
2013-05-14 04:54:00,66.0,55.0,29.97,SW,225,8.0,14.0,67,-99.99,,,-99.99,,2013-05-14 09:54:00,
2013-05-14 05:04:00,66.0,54.0,29.98,SW,225,7.0,11.0,66,-99.99,,,-99.99,,2013-05-14 10:04:00,
2013-05-14 05:14:00,66.0,54.0,29.98,SW,225,9.0,17.0,65,-99.99,,,-99.99,,2013-05-14 10:14:00,
2013-05-14 05:25:00,66.0,54.0,29.97,SSW,202,9.0,14.0,64,-99.99,,,-99.99,,2013-05-14 10:25:00,
2013-05-14 05:33:00,67.0,54.0,29.97,SW,225,10.0,14.0,64,-99.99,,,-99.99,,2013-05-14 10:33:00,
2013-05-14 05:42:00,66.0,54.0,29.97,SW,225,9.0,13.0,64,-99.99,,,-99.99,,2013-05-14 10:42:00,
2013-05-14 05:52:00,67.0,54.0,29.97,SW,225,10.0,14.0,63,-99.99,,,-99.99,,2013-05-14 10:52:00,
2013-05-14 06:02:00,67.0,54.0,29.97,SW,225,10.0,14.0,62,-99.99,,,-99.99,,2013-05-14 11:02:00,
2013-05-14 06:11:00,67.0,53.0,29.97,SW,225,10.0,16.0,62,-99.99,,,-99.99,,2013-05-14 11:11:00,
2013-05-14 06:21:00,67.0,53.0,29.97,SSW,202,9.0,15.0,62,-99.99,,,-99.99,,2013-05-14 11:21:00,
2013-05-14 06:32:00,67.0,53.0,29.97,SW,225,9.0,13.0,62,-99.99,,,-99.99,,2013-05-14 11:32:00,
2013-05-14 06:43:00,67.0,53.0,29.98,SSW,202,8.0,13.0,61,-99.99,,,-99.99,,2013-05-14 11:43:00,
2013-05-14 06:52:00,68.0,53.0,29.98,SW,225,9.0,14.0,59,-99.99,,,-99.99,,2013-05-14 11:52:00,
2013-05-14 07:02:00,68.0,53.0,29.98,WSW,247,9.0,14.0,60,-99.99,,,-99.99,,2013-05-14 12:02:00,
2013-05-14 07:12:00,68.0,52.0,29.98,SW,225,9.0,15.0,58,-99.99,,,-99.99,,2013-05-14 12:12:00,
2013-05-14 07:21:00,68.0,53.0,29.99,SSW,202,9.0,13.0,58,-99.99,,,-99.99,,2013-05-14 12:21:00,
2013-05-14 07:32:00,68.0,52.0,29.98,SW,225,11.0,16.0,57,-99.99,,,-99.99,,2013-05-14 12:32:00,
2013-05-14 07:42:00,69.0,52.0,29.98,SW,225,11.0,17.0,54,-99.99,,,-99.99,,2013-05-14 12:42:00,
2013-05-14 07:51:00,70.0,52.0,29.98,SW,225,11.0,19.0,53,-99.99,,,-99.99,,2013-05-14 12:51:00,
2013-05-14 08:01:00,71.0,52.0,29.98,WSW,247,13.0,18.0,50,-99.99,,,-99.99,,2013-05-14 13:01:00,
2013-05-14 08:11:00,72.0,51.0,29.98,SW,225,12.0,21.0,47,-99.99,,,-99.99,,2013-05-14 13:11:00,
2013-05-14 08:22:00,73.0,51.0,29.97,WSW,247,13.0,20.0,46,-99.99,,,-99.99,,2013-05-14 13:22:00,
2013-05-14 08:32:00,74.0,52.0,29.98,SW,225,13.0,19.0,46,-99.99,,,-99.99,,2013-05-14 13:32:00,
2013-05-14 08:41:00,75.0,50.0,29.97,WSW,247,14.0,23.0,41,-99.99,,,-99.99,,2013-05-14 13:41:00,
2013-05-14 08:52:00,76.0,50.0,29.97,WSW,247,16.0,23.0,40,-99.99,,,-99.99,,2013-05-14 13:52:00,
2013-05-14 09:01:00,77.0,49.0,29.97,WSW,247,13.0,19.0,38,-99.99,,,-99.99,,2013-05-14 14:01:00,
2013-05-14 09:11:00,77.0,50.0,29.97,SW,225,14.0,27.0,38,-99.99,,,-99.99,,2013-05-14 14:11:00,
2013-05-14 09:22:00,78.0,48.0,29.97,WSW,247,15.0,26.0,35,-99.99,,,-99.99,,2013-05-14 14:22:00,
2013-05-14 09:31:00,79.0,48.0,29.97,West,270,13.0,23.0,34,-99.99,,,-99.99,,2013-05-14 14:31:00,
2013-05-14 09:41:00,79.0,48.0,29.96,WSW,247,15.0,23.0,34,-99.99,,,-99.99,,2013-05-14 14:41:00,
2013-05-14 09:52:00,79.0,47.0,29.96,WSW,247,16.0,23.0,33,-99.99,,,-99.99,,2013-05-14 14:52:00,
2013-05-14 10:01:00,80.0,48.0,29.96,WSW,247,13.0,19.0,33,-99.99,,,-99.99,,2013-05-14 15:01:00,
2013-05-14 10:12:00,80.0,48.0,29.96,WSW,247,16.0,23.0,32,-99.99,,,-99.99,,2013-05-14 15:12:00,
2013-05-14 10:21:00,81.0,49.0,29.97,SSW,202,14.0,23.0,33,-99.99,,,-99.99,,2013-05-14 15:21:00,
2013-05-14 10:33:00,81.0,48.0,29.97,WSW,247,15.0,21.0,31,-99.99,,,-99.99,,2013-05-14 15:33:00,
2013-05-14 10:43:00,82.0,49.0,29.97,WSW,247,14.0,20.0,31,-99.99,,,-99.99,,2013-05-14 15:43:00,
2013-05-14 10:53:00,82.0,47.0,29.96,WSW,247,17.0,23.0,29,-99.99,,,-99.99,,2013-05-14 15:53:00,
2013-05-14 11:02:00,83.0,48.0,29.96,SW,225,16.0,25.0,30,-99.99,,,-99.99,,2013-05-14 16:02:00,
2013-05-14 11:12:00,83.0,47.0,29.96,SW,225,15.0,23.0,29,-99.99,,,-99.99,,2013-05-14 16:12:00,
2013-05-14 11:23:00,84.0,50.0,29.96,SW,225,12.0,17.0,30,-99.99,,,-99.99,,2013-05-14 16:23:00,
2013-05-14 11:33:00,85.0,53.0,29.96,WSW,247,14.0,21.0,34,-99.99,,,-99.99,,2013-05-14 16:33:00,
2013-05-14 11:43:00,85.0,49.0,29.96,WSW,247,15.0,26.0,29,-99.99,,,-99.99,,2013-05-14 16:43:00,
2013-05-14 11:54:00,85.0,50.0,29.96,SSW,202,15.0,22.0,30,-99.99,,,-99.99,,2013-05-14 16:54:00,
2013-05-14 12:03:00,85.0,50.0,29.97,WSW,247,14.0,20.0,30,-99.99,,,-99.99,,2013-05-14 17:03:00,
2013-05-14 12:13:00,86.0,49.0,29.96,SSW,202,14.0,21.0,28,-99.99,,,-99.99,,2013-05-14 17:13:00,
2013-05-14 12:24:00,86.0,49.0,29.96,WSW,247,16.0,25.0,29,-99.99,,,-99.99,,2013-05-14 17:24:00,
2013-05-14 12:32:00,87.0,49.0,29.96,WSW,247,12.0,20.0,27,-99.99,,,-99.99,,2013-05-14 17:32:00,
2013-05-14 12:43:00,86.0,49.0,29.95,SW,225,16.0,22.0,27,-99.99,,,-99.99,,2013-05-14 17:43:00,
2013-05-14 12:52:00,87.0,48.0,29.95,WSW,247,16.0,25.0,26,-99.99,,,-99.99,,2013-05-14 17:52:00,
2013-05-14 13:02:00,87.0,49.0,29.95,WSW,247,13.0,22.0,27,-99.99,,,-99.99,,2013-05-14 18:02:00,
2013-05-14 13:12:00,88.0,51.0,29.95,SW,225,15.0,22.0,29,-99.99,,,-99.99,,2013-05-14 18:12:00,
2013-05-14 13:22:00,88.0,52.0,29.95,WSW,247,14.0,21.0,29,-99.99,,,-99.99,,2013-05-14 18:22:00,
2013-05-14 13:32:00,89.0,51.0,29.94,WSW,247,13.0,21.0,27,-99.99,,,-99.99,,2013-05-14 18:32:00,
2013-05-14 13:42:00,90.0,49.0,29.94,WSW,247,12.0,18.0,25,-99.99,,,-99.99,,2013-05-14 18:42:00,
2013-05-14 13:52:00,90.0,50.0,29.94,SSW,202,15.0,21.0,25,-99.99,,,-99.99,,2013-05-14 18:52:00,
2013-05-14 14:01:00,90.0,49.0,29.93,WSW,247,13.0,25.0,25,-99.99,,,-99.99,,2013-05-14 19:01:00,
2013-05-14 14:11:00,90.0,49.0,29.93,WSW,247,15.0,25.0,25,-99.99,,,-99.99,,2013-05-14 19:11:00,
2013-05-14 14:22:00,90.0,47.0,29.93,WSW,247,14.0,26.0,22,-99.99,,,-99.99,,2013-05-14 19:22:00,
2013-05-14 14:32:00,91.0,48.0,29.93,WSW,247,13.0,24.0,23,-99.99,,,-99.99,,2013-05-14 19:32:00,
2013-05-14 14:42:00,91.0,52.0,29.92,WSW,247,12.0,18.0,26,-99.99,,,-99.99,,2013-05-14 19:42:00,
2013-05-14 14:52:00,91.0,51.0,29.92,SW,225,12.0,19.0,25,-99.99,,,-99.99,,2013-05-14 19:52:00,
2013-05-14 15:02:00,92.0,48.0,29.92,WSW,247,16.0,26.0,22,-99.99,,,-99.99,,2013-05-14 20:02:00,
2013-05-14 15:11:00,92.0,46.0,29.92,SW,225,14.0,25.0,20,-99.99,,,-99.99,,2013-05-14 20:11:00,
2013-05-14 15:23:00,92.0,47.0,29.92,West,270,10.0,17.0,21,-99.99,,,-99.99,,2013-05-14 20:23:00,
2013-05-14 15:32:00,92.0,49.0,29.92,SW,225,15.0,30.0,23,-99.99,,,-99.99,,2013-05-14 20:32:00,
2013-05-14 15:44:00,92.0,47.0,29.92,WSW,247,14.0,22.0,22,-99.99,,,-99.99,,2013-05-14 20:44:00,
2013-05-14 15:52:00,92.0,48.0,29.91,SW,225,13.0,19.0,23,-99.99,,,-99.99,,2013-05-14 20:52:00,
2013-05-14 16:03:00,92.0,47.0,29.91,West,270,12.0,21.0,21,-99.99,,,-99.99,,2013-05-14 21:03:00,
2013-05-14 16:12:00,93.0,53.0,29.91,WSW,247,12.0,20.0,27,-99.99,,,-99.99,,2013-05-14 21:12:00,
2013-05-14 16:23:00,92.0,48.0,29.91,SW,225,14.0,23.0,22,-99.99,,,-99.99,,2013-05-14 21:23:00,
2013-05-14 16:33:00,92.0,50.0,29.90,WSW,247,12.0,19.0,24,-99.99,,,-99.99,,2013-05-14 21:33:00,
2013-05-14 16:42:00,92.0,49.0,29.90,WSW,247,15.0,22.0,23,-99.99,,,-99.99,,2013-05-14 21:42:00,
2013-05-14 16:52:00,92.0,51.0,29.90,WSW,247,14.0,23.0,25,-99.99,,,-99.99,,2013-05-14 21:52:00,
2013-05-14 17:03:00,92.0,50.0,29.90,SW,225,14.0,21.0,24,-99.99,,,-99.99,,2013-05-14 22:03:00,
2013-05-14 17:13:00,92.0,50.0,29.90,WSW,247,13.0,19.0,24,-99.99,,,-99.99,,2013-05-14 22:13:00,
2013-05-14 17:24:00,91.0,50.0,29.90,SW,225,15.0,26.0,24,-99.99,,,-99.99,,2013-05-14 22:24:00,
2013-05-14 17:34:00,91.0,49.0,29.89,WSW,247,12.0,23.0,24,-99.99,,,-99.99,,2013-05-14 22:34:00,
2013-05-14 17:45:00,90.0,53.0,29.89,SSW,202,15.0,22.0,28,-99.99,,,-99.99,,2013-05-14 22:45:00,
2013-05-14 17:54:00,90.0,52.0,29.89,SW,225,15.0,23.0,27,-99.99,,,-99.99,,2013-05-14 22:54:00,
2013-05-14 18:03:00,90.0,50.0,29.89,WSW,247,13.0,21.0,25,-99.99,,,-99.99,,2013-05-14 23:03:00,
2013-05-14 18:12:00,90.0,52.0,29.89,WSW,247,12.0,19.0,28,-99.99,,,-99.99,,2013-05-14 23:12:00,
2013-05-14 18:21:00,89.0,53.0,29.89,SSW,202,13.0,20.0,29,-99.99,,,-99.99,,2013-05-14 23:21:00,
2013-05-14 18:32:00,89.0,50.0,29.89,SW,225,13.0,22.0,26,-99.99,,,-99.99,,2013-05-14 23:32:00,
2013-05-14 18:44:00,89.0,49.0,29.89,SSW,202,15.0,21.0,25,-99.99,,,-99.99,,2013-05-14 23:44:00,
2013-05-14 18:52:00,89.0,50.0,29.89,SW,225,12.0,21.0,26,-99.99,,,-99.99,,2013-05-14 23:52:00,
2013-05-14 19:02:00,88.0,52.0,29.89,SW,225,11.0,20.0,29,-99.99,,,-99.99,,2013-05-15 00:02:00,
2013-05-14 19:11:00,88.0,50.0,29.89,SSW,202,13.0,21.0,27,-99.99,,,-99.99,,2013-05-15 00:11:00,
2013-05-14 19:21:00,87.0,49.0,29.89,SW,225,11.0,17.0,27,-99.99,,,-99.99,,2013-05-15 00:21:00,
2013-05-14 19:32:00,87.0,50.0,29.89,SSW,202,11.0,18.0,29,-99.99,,,-99.99,,2013-05-15 00:32:00,
2013-05-14 19:41:00,86.0,52.0,29.89,SW,225,9.0,14.0,32,-99.99,,,-99.99,,2013-05-15 00:41:00,
2013-05-14 19:51:00,85.0,51.0,29.89,SSW,202,10.0,18.0,30,-99.99,,,-99.99,,2013-05-15 00:51:00,
2013-05-14 20:01:00,85.0,51.0,29.89,SSW,202,12.0,21.0,31,-99.99,,,-99.99,,2013-05-15 01:01:00,
2013-05-14 20:11:00,84.0,51.0,29.90,SW,225,10.0,18.0,32,-99.99,,,-99.99,,2013-05-15 01:11:00,
2013-05-14 20:21:00,84.0,51.0,29.90,SW,225,11.0,18.0,32,-99.99,,,-99.99,,2013-05-15 01:21:00,
2013-05-14 20:31:00,83.0,51.0,29.90,SW,225,10.0,16.0,33,-99.99,,,-99.99,,2013-05-15 01:31:00,
2013-05-14 20:42:00,83.0,51.0,29.90,SW,225,9.0,15.0,34,-99.99,,,-99.99,,2013-05-15 01:42:00,
2013-05-14 20:52:00,82.0,52.0,29.91,SW,225,9.0,14.0,35,-99.99,,,-99.99,,2013-05-15 01:52:00,
2013-05-14 21:02:00,81.0,51.0,29.91,SSW,202,7.0,11.0,36,-99.99,,,-99.99,,2013-05-15 02:02:00,
2013-05-14 21:11:00,81.0,50.0,29.92,SSW,202,9.0,14.0,34,-99.99,,,-99.99,,2013-05-15 02:11:00,
2013-05-14 21:21:00,81.0,51.0,29.92,SW,225,9.0,15.0,35,-99.99,,,-99.99,,2013-05-15 02:21:00,
2013-05-14 21:31:00,80.0,52.0,29.92,SW,225,7.0,10.0,37,-99.99,,,-99.99,,2013-05-15 02:31:00,
2013-05-14 21:42:00,79.0,52.0,29.93,SSW,202,7.0,11.0,38,-99.99,,,-99.99,,2013-05-15 02:42:00,
2013-05-14 21:52:00,79.0,51.0,29.93,SW,225,8.0,13.0,37,-99.99,,,-99.99,,2013-05-15 02:52:00,
2013-05-14 22:01:00,79.0,52.0,29.94,SW,225,8.0,13.0,38,-99.99,,,-99.99,,2013-05-15 03:01:00,
2013-05-14 22:12:00,78.0,51.0,29.94,SW,225,8.0,12.0,38,-99.99,,,-99.99,,2013-05-15 03:12:00,
2013-05-14 22:22:00,78.0,52.0,29.94,SW,225,8.0,14.0,40,-99.99,,,-99.99,,2013-05-15 03:22:00,
2013-05-14 22:33:00,79.0,51.0,29.94,SW,225,11.0,22.0,38,-99.99,,,-99.99,,2013-05-15 03:33:00,
2013-05-14 22:44:00,79.0,50.0,29.94,SSW,202,11.0,17.0,36,-99.99,,,-99.99,,2013-05-15 03:44:00,
2013-05-14 22:54:00,79.0,50.0,29.95,SW,225,12.0,18.0,37,-99.99,,,-99.99,,2013-05-15 03:54:00,
2013-05-14 23:03:00,79.0,49.0,29.94,SW,225,12.0,21.0,35,-99.99,,,-99.99,,2013-05-15 04:03:00,
2013-05-14 23:12:00,78.0,50.0,29.95,SW,225,10.0,17.0,37,-99.99,,,-99.99,,2013-05-15 04:12:00,
2013-05-14 23:24:00,78.0,49.0,29.94,SW,225,10.0,14.0,37,-99.99,,,-99.99,,2013-05-15 04:24:00,
2013-05-14 23:33:00,77.0,50.0,29.95,SSW,202,9.0,13.0,39,-99.99,,,-99.99,,2013-05-15 04:33:00,
2013-05-14 23:42:00,78.0,51.0,29.95,SSW,202,10.0,16.0,39,-99.99,,,-99.99,,2013-05-15 04:42:00,
2013-05-14 23:52:00,77.0,50.0,29.96,SSW,202,7.0,12.0,40,-99.99,,,-99.99,,2013-05-15 04:52:00,